18 augustus 2022

Tijd Code Weer Temp. Zicht Plafond Wind METAR/SPECI
21:25
V
21 °C 10 km+ - 330° 330° 1 kt METAR EHVK 181925Z AUTO 33001KT 9999 NCD 21/16 Q1012 BLU
20:55
V
23 °C 10 km+ - Var Var 1 kt METAR EHVK 181855Z AUTO VRB01KT 9999 NCD 23/16 Q1012 BLU
20:25
V
24 °C 10 km+ - Var Var 2 kt METAR EHVK 181825Z AUTO VRB02KT 9999 NCD 24/16 Q1012 BLU
19:55
V
25 °C 10 km+ - 330° 330° 3 kt METAR EHVK 181755Z AUTO 33003KT 310V010 9999 FEW052 25/16 Q1012 BLU
19:25
V
25 °C 10 km+ - 280° 280° 4 kt METAR EHVK 181725Z AUTO 28004KT 290V020 9999 SCT053 25/15 Q1012 BLU
18:55
V
26 °C 10 km+ - 290° 290° 4 kt METAR EHVK 181655Z AUTO 29004KT 320V020 9999 NCD 26/15 Q1012 BLU
18:25
V
26 °C 10 km+ 6.000 ft 360° 360° 4 kt METAR EHVK 181625Z AUTO 36004KT 300V030 9999 FEW047 SCT051 BKN060 26/16 Q1012 BLU
17:55
V
26 °C 10 km+ 4.400 ft 350° 350° 3 kt METAR EHVK 181555Z AUTO 35003KT 260V070 9999 FEW038 BKN044 OVC072 26/16 Q1012 BLU
17:25
V
25 °C 10 km+ 3.800 ft 030° 030° 5 kt METAR EHVK 181525Z AUTO 03005KT 330V050 9999 BKN038 OVC043 25/16 Q1012 BLU
16:55
V
26 °C 10 km+ 3.500 ft 020° 020° 5 kt METAR EHVK 181455Z AUTO 02005KT 320V090 9999 OVC035 26/16 Q1012 BLU
16:25
V
26 °C 10 km+ 3.700 ft 250° 250° 3 kt METAR EHVK 181425Z AUTO 25003KT 270V040 9999 BKN037 BKN042 OVC074 26/15 Q1013 BLU
16:11
V
26 °C 10 km+ 3.600 ft 260° 260° 5 kt METAR EHVK 181411Z AUTO 26005KT 230V010 9999 OVC036 26/16 Q1013 BLU
15:55
V
25 °C 10 km+ 4.000 ft 260° 260° 5 kt METAR EHVK 181355Z AUTO 26005KT 200V330 9999 SCT035 BKN040 BKN072 25/16 Q1013 BLU NOSIG
15:25
V
25 °C 10 km+ 6.700 ft Var Var 3 kt METAR EHVK 181325Z AUTO VRB03KT 9999 BKN067 25/15 Q1013 BLU NOSIG
14:55
V
26 °C 10 km+ 6.200 ft 040° 040° 3 kt METAR EHVK 181255Z AUTO 04003KT 170V300 9999 FEW036 OVC062 26/15 Q1013 BLU NOSIG
14:25
V
25 °C 10 km+ 5.700 ft Var Var 3 kt METAR EHVK 181225Z AUTO VRB03KT 9999 BKN057 25/15 Q1013 BLU NOSIG
13:55
V
24 °C 10 km+ 5.100 ft Var Var 3 kt METAR EHVK 181155Z AUTO VRB03KT 9999 FEW034 SCT043 OVC051 24/15 Q1013 BLU NOSIG
13:25
M
23 °C 10 km+ 2.900 ft Var Var 3 kt METAR EHVK 181125Z AUTO VRB03KT 9999 BKN029 OVC045 23/16 Q1013 BLU NOSIG
12:55
V
24 °C 10 km+ 4.500 ft Var Var 3 kt METAR EHVK 181055Z AUTO VRB03KT 9999 BKN045 OVC049 24/16 Q1013 BLU NOSIG
12:43
V
23 °C 10 km+ - 350° 350° 3 kt METAR EHVK 181043Z AUTO 35003KT 230V010 9999 FEW022/// SCT028/// 23/16 Q1013 BLU NOSIG
12:26
M
23 °C 10 km+ 2.300 ft 320° 320° 3 kt METAR EHVK 181026Z AUTO 32003KT 260V020 9999 BKN023 BKN031 OVC039 23/16 Q1014 WHT NOSIG
12:25
M
22 °C 10 km+ 2.600 ft 300° 300° 4 kt METAR EHVK 181025Z AUTO 30004KT 280V010 9999 SCT023 BKN026 BKN032 22/16 Q1014 WHT NOSIG
12:15
V
23 °C 10 km+ 4.000 ft 360° 360° 3 kt METAR EHVK 181015Z AUTO 36003KT 270V350 9999 FEW023 SCT026 OVC040 23/16 Q1014 BLU NOSIG
12:07
M
23 °C 10 km+ 2.300 ft 340° 340° 4 kt METAR EHVK 181007Z AUTO 34004KT 240V330 9999 BKN023 OVC041 23/16 Q1014 WHT NOSIG
12:03
V
23 °C 10 km+ 4.000 ft 320° 320° 4 kt METAR EHVK 181003Z AUTO 32004KT 230V340 9999 SCT024 OVC040 23/16 Q1014 WHT NOSIG
11:56
V
23 °C 10 km+ 4.000 ft 300° 300° 4 kt METAR EHVK 180956Z AUTO 30004KT 230V330 9999 FEW032 BKN040 23/16 Q1014 BLU NOSIG
11:55
V
22 °C 10 km+ 4.000 ft 320° 320° 4 kt METAR EHVK 180955Z AUTO 32004KT 260V340 9999 FEW019 SCT023 BKN040 22/16 Q1014 WHT NOSIG
11:41
V
22 °C 10 km+ 3.600 ft 350° 350° 5 kt METAR EHVK 180941Z AUTO 35005KT 300V070 9999 FEW019 SCT032 BKN036 22/16 Q1014 BLU NOSIG
11:25
M
23 °C 10 km+ 1.900 ft 340° 340° 5 kt METAR EHVK 180925Z AUTO 34005KT 290V050 9999 BKN019 BKN029 BKN036 23/17 Q1014 WHT NOSIG
11:21
M
23 °C 10 km+ 2.900 ft 350° 350° 4 kt METAR EHVK 180921Z AUTO 35004KT 260V050 9999 SCT019 BKN029 23/17 Q1014 WHT NOSIG
11:06
V
22 °C 10 km+ - 350° 350° 5 kt METAR EHVK 180906Z AUTO 35005KT 9999 FEW023 SCT026 22/17 Q1014 BLU NOSIG
11:05
M
22 °C 10 km+ 2.700 ft 350° 350° 4 kt METAR EHVK 180905Z AUTO 35004KT 9999 SCT023 BKN027 22/17 Q1014 WHT NOSIG
10:59
V
22 °C 10 km+ - 350° 350° 4 kt METAR EHVK 180859Z AUTO 35004KT 280V020 9999 FEW013 22/17 Q1014 BLU BECMG SCT010
10:55
V
21 °C 10 km+ - 350° 350° 4 kt METAR EHVK 180855Z AUTO 35004KT 270V050 9999 SCT013 SCT019 21/17 Q1014 GRN BECMG SCT010
10:35
M
21 °C 10 km+ 1.500 ft 350° 350° 4 kt METAR EHVK 180835Z AUTO 35004KT 230V350 9999 FEW013 OVC015 21/17 Q1014 WHT BECMG SCT010
10:31
M
21 °C 10 km+ 1.600 ft Var Var 4 kt METAR EHVK 180831Z AUTO VRB04KT 9999 FEW009 SCT013 OVC016 21/18 Q1014 GRN BECMG SCT010
10:30
M
21 °C 10 km+ 1.300 ft Var Var 4 kt METAR EHVK 180830Z AUTO VRB04KT 9999 FEW009 BKN013 OVC016 21/17 Q1014 GRN BECMG SCT010
10:25
M
20 °C 10 km+ 1.000 ft Var Var 3 kt METAR EHVK 180825Z AUTO VRB03KT 9999 SCT009 BKN010 BKN012 20/17 Q1014 GRN BECMG SCT010
10:09
I
20 °C 10 km+ 800 ft Var Var 3 kt METAR EHVK 180809Z AUTO VRB03KT 9999 BKN008 OVC009 20/17 Q1014 GRN BECMG SCT010
09:55
I
20 °C 10 km+ 900 ft Var Var 2 kt METAR EHVK 180755Z AUTO VRB02KT 9999 SCT008 OVC009 20/17 Q1013 GRN BECMG SCT010
09:42
I
19 °C 9 km 800 ft 360° 360° 3 kt METAR EHVK 180742Z AUTO 36003KT 270V060 9000 BR SCT007 OVC008 19/17 Q1013 GRN BECMG 9999 NSW SCT010
09:39
I
19 °C 9 km 600 ft 010° 010° 4 kt METAR EHVK 180739Z AUTO 01004KT 270V040 9000 BR BKN006/// BKN008/// OVC009/// 19/17 Q1013 YLO BECMG 9999 NSW SCT010
09:35
I
19 °C 9 km 800 ft 360° 360° 4 kt METAR EHVK 180735Z AUTO 36004KT 280V020 9000 BR SCT006 BKN008 19/17 Q1013 YLO BECMG 9999 NSW SCT010
09:30
I
19 °C 9 km 700 ft 350° 350° 4 kt METAR EHVK 180730Z AUTO 35004KT 250V040 9000 BR SCT006 BKN007 BKN009 19/17 Q1013 YLO BECMG 9999 NSW SCT010
09:25
I
19 °C 7 km 700 ft 320° 320° 4 kt METAR EHVK 180725Z AUTO 32004KT 250V040 7000 BR SCT006 BKN007 OVC008 19/17 Q1013 YLO BECMG 9999 NSW SCT010
09:08
I
19 °C 6 km 500 ft 320° 320° 3 kt METAR EHVK 180708Z AUTO 32003KT 280V350 6000 BR BKN005 OVC006 19/17 Q1013 YLO BECMG 9999 NSW SCT010
08:55
L
18 °C 5 km 300 ft Var Var 1 kt METAR EHVK 180655Z AUTO VRB01KT 5000 BR BKN003 BKN005 OVC006 18/17 Q1013 YLO BECMG 9999 NSW SCT010
08:40
L
18 °C 4,4 km 200 ft Var Var 2 kt METAR EHVK 180640Z AUTO VRB02KT 4400 BR BKN002 OVC004 18/17 Q1013 AMB BECMG 9999 NSW SCT005 BKN010
08:28
L
18 °C 2,7 km 200 ft Var Var 2 kt METAR EHVK 180628Z AUTO VRB02KT 2700 BR OVC002 18/17 Q1013 AMB BECMG 0800 FG SCT002 BKN003
08:25
L
18 °C 2,4 km 100 ft Var Var 2 kt METAR EHVK 180625Z AUTO VRB02KT 2400 BR OVC001 18/17 Q1013 RED BECMG 0800 FG SCT002 BKN003
08:12
L
17 °C 1,2 km 100 ft 280° 280° 3 kt METAR EHVK 180612Z AUTO 28003KT 250V320 1200 BR OVC001 17/17 Q1013 RED BECMG 0800 FG SCT002 BKN003
07:55
L
17 °C 650 m - Var Var 2 kt METAR EHVK 180555Z AUTO VRB02KT 0650 R24L/0750D FG OVC000 17/17 Q1013 RED BECMG 0800 FG SCT002 BKN003
07:30
L
17 °C 1,5 km 100 ft 290° 290° 3 kt METAR EHVK 180530Z AUTO 29003KT 260V340 1500 BR OVC001 17/17 Q1013 RED
07:25
L
17 °C 1,8 km 100 ft 280° 280° 3 kt METAR EHVK 180525Z AUTO 28003KT 260V340 1800 BR OVC001 17/17 Q1013 RED
07:19
L
17 °C 2,1 km 200 ft 270° 270° 3 kt METAR EHVK 180519Z AUTO 27003KT 250V340 2100 BR OVC002 17/17 Q1013 AMB
07:04
L
17 °C 2,2 km 100 ft 260° 260° 3 kt METAR EHVK 180504Z AUTO 26003KT 240V300 2200 BR BKN001 BKN310 17/17 Q1013 RED
06:57
I
17 °C 2,4 km 31.000 ft 270° 270° 3 kt METAR EHVK 180457Z AUTO 27003KT 240V300 2400 BR SCT001 BKN310 17/17 Q1013 RED
06:55
I
17 °C 2,8 km 31.000 ft 270° 270° 4 kt METAR EHVK 180455Z AUTO 27004KT 230V310 2800 BR FEW002 BKN310 17/17 Q1013 YLO
06:25
I
17 °C 4,2 km 1.000 ft Var Var 2 kt METAR EHVK 180425Z AUTO VRB02KT 4200 BR OVC010 17/17 Q1013 GRN
06:06
I
17 °C 3,9 km 1.100 ft 310° 310° 2 kt METAR EHVK 180406Z AUTO 31002KT 3900 BR BKN011 OVC013 17/17 Q1013 GRN
05:55
I
17 °C 2,8 km 1.000 ft 270° 270° 2 kt METAR EHVK 180355Z AUTO 27002KT 2800 BR BKN010 OVC012 17/17 Q1013 YLO
05:43
I
17 °C 4 km 1.000 ft Var Var 2 kt METAR EHVK 180343Z AUTO VRB02KT 4000 BR FEW004 OVC010 17/16 Q1013 GRN
05:36
L
17 °C 2,2 km 400 ft 020° 020° 1 kt METAR EHVK 180336Z AUTO 02001KT 2200 BR BKN004 BKN005 OVC010 17/17 Q1013 YLO
05:29
I
17 °C 2,4 km 1.100 ft Var Var 1 kt METAR EHVK 180329Z AUTO VRB01KT 2400 BR SCT004 OVC011 17/17 Q1013 YLO
05:25
I
17 °C 3 km 1.000 ft Var Var 1 kt METAR EHVK 180325Z AUTO VRB01KT 3000 BR OVC010 17/17 Q1013 YLO
05:20
I
17 °C 3,4 km 1.000 ft Var Var 1 kt METAR EHVK 180320Z AUTO VRB01KT 3400 BR BKN010 OVC280 17/17 Q1013 YLO
05:16
I
17 °C 3,6 km 28.000 ft Var Var 1 kt METAR EHVK 180316Z AUTO VRB01KT 3600 BR SCT010 OVC280 17/17 Q1013 YLO
05:11
I
18 °C 3,8 km 28.000 ft Var Var 1 kt METAR EHVK 180311Z AUTO VRB01KT 3800 BR FEW003 OVC280 18/17 Q1013 GRN
04:56
I
18 °C 3,4 km 28.000 ft Var Var 1 kt METAR EHVK 180256Z AUTO VRB01KT 3400 BR FEW002 OVC280 18/17 Q1013 YLO
04:55
I
18 °C 3,7 km 29.000 ft Var Var 2 kt METAR EHVK 180255Z AUTO VRB02KT 3700 BR FEW003 OVC290 18/17 Q1013 GRN
04:40
L
18 °C 4,2 km 300 ft 310° 310° 3 kt METAR EHVK 180240Z AUTO 31003KT 250V340 4200 BR BKN003 OVC004 18/17 Q1013 YLO
04:25
L
18 °C 3,3 km 300 ft 280° 280° 4 kt METAR EHVK 180225Z AUTO 28004KT 250V330 3300 BR OVC003 18/17 Q1012 YLO
04:18
L
18 °C 3,3 km 300 ft 270° 270° 4 kt METAR EHVK 180218Z AUTO 27004KT 250V330 3300 BR OVC003 18/17 Q1012 YLO
03:55
I
18 °C 4,2 km 600 ft Var Var 2 kt METAR EHVK 180155Z AUTO VRB02KT 4200 BR FEW003 SCT004 BKN006 18/18 Q1012 YLO
03:42
I
19 °C 3,9 km 1.500 ft 280° 280° 3 kt METAR EHVK 180142Z AUTO 28003KT 250V320 3900 BR FEW004 SCT010 OVC015 19/18 Q1012 GRN
03:33
I
19 °C 4 km 700 ft 290° 290° 3 kt METAR EHVK 180133Z AUTO 29003KT 260V330 4000 BR FEW004 SCT005 BKN007 19/18 Q1012 YLO
03:25
I
19 °C 4,1 km 700 ft 300° 300° 3 kt METAR EHVK 180125Z AUTO 30003KT 260V330 4100 BR FEW004 SCT005 OVC007 19/18 Q1012 YLO
02:55
I
19 °C 3,3 km 500 ft 280° 280° 4 kt METAR EHVK 180055Z AUTO 28004KT 250V310 3300 BR FEW004 BKN005 BKN007 19/18 Q1012 YLO
02:39
I
19 °C 3,3 km 500 ft Var Var 2 kt METAR EHVK 180039Z AUTO VRB02KT 3300 BR BKN005 OVC007 19/18 Q1012 YLO
02:35
I
19 °C 3,3 km 700 ft Var Var 2 kt METAR EHVK 180035Z AUTO VRB02KT 3300 BR SCT005/// BKN007/// OVC039/// 19/18 Q1012 YLO
02:31
I
19 °C 3,2 km 3.800 ft 280° 280° 3 kt METAR EHVK 180031Z AUTO 28003KT 240V300 3200 BR FEW003/// SCT007/// OVC038/// 19/18 Q1012 YLO
02:25
I
19 °C 3 km 1.800 ft 280° 280° 3 kt METAR EHVK 180025Z AUTO 28003KT 240V300 3000 BR FEW003 BKN018 OVC038 19/18 Q1012 YLO
02:17
I
19 °C 2,9 km 1.600 ft 270° 270° 4 kt METAR EHVK 180017Z AUTO 27004KT 230V300 2900 BR OVC016 19/18 Q1012 YLO
02:04
L
19 °C 2,7 km 300 ft 270° 270° 4 kt METAR EHVK 180004Z AUTO 27004KT 240V300 2700 BR FEW002 BKN003 BKN006 19/18 Q1012 YLO
01:59
L
19 °C 2,7 km 400 ft 260° 260° 4 kt METAR EHVK 172359Z AUTO 26004KT 240V300 2700 BR SCT002 OVC004 19/18 Q1012 AMB
01:55
L
19 °C 2,6 km 300 ft 260° 260° 4 kt METAR EHVK 172355Z AUTO 26004KT 230V290 2600 BR BKN003 OVC004 19/18 Q1012 YLO
01:32
I
18 °C 2,5 km 600 ft 270° 270° 3 kt METAR EHVK 172332Z AUTO 27003KT 240V300 2500 BR FEW004 BKN006 BKN007 18/18 Q1012 YLO
01:31
I
18 °C 2,6 km 800 ft Var Var 2 kt METAR EHVK 172331Z AUTO VRB02KT 2600 BR FEW003 SCT006 BKN008 18/18 Q1012 YLO
01:25
I
18 °C 2,6 km 1.400 ft 260° 260° 2 kt METAR EHVK 172325Z AUTO 26002KT 2600 BR SCT003 SCT008 BKN014 18/18 Q1012 YLO
01:08
I
18 °C 2,3 km 600 ft 250° 250° 3 kt METAR EHVK 172308Z AUTO 25003KT 2300 BR FEW004 SCT005 BKN006 18/18 Q1012 YLO
01:04
I
18 °C 2,3 km 700 ft Var Var 2 kt METAR EHVK 172304Z AUTO VRB02KT 2300 BR SCT004 BKN007 OVC015 18/18 Q1012 YLO
00:55
I
18 °C 2,2 km 1.000 ft 230° 230° 3 kt METAR EHVK 172255Z AUTO 23003KT 2200 BR SCT009 OVC010 18/18 Q1012 YLO
00:40
I
18 °C 2,3 km 1.000 ft 240° 240° 3 kt METAR EHVK 172240Z AUTO 24003KT 2300 BR FEW006 SCT009 OVC010 18/17 Q1012 YLO
00:25
I
18 °C 2,1 km 500 ft 230° 230° 4 kt METAR EHVK 172225Z AUTO 23004KT 2100 BR FEW002 BKN005 BKN006 18/18 Q1012 YLO

17 augustus 2022

Tijd Code Weer Temp. Zicht Plafond Wind METAR/SPECI
23:55
I
17 °C 2,1 km 500 ft 240° 240° 3 kt METAR EHVK 172155Z AUTO 24003KT 2100 BR BKN005 17/17 Q1012 YLO
23:35
I
16 °C 2,6 km - 210° 210° 4 kt METAR EHVK 172135Z AUTO 21004KT 2600 BR SCT005 16/16 Q1012 YLO
23:25
I
16 °C 2,6 km - 220° 220° 4 kt METAR EHVK 172125Z AUTO 22004KT 2600 BR FEW006 16/16 Q1012 YLO
22:55
I
17 °C 2,7 km - 230° 230° 5 kt METAR EHVK 172055Z AUTO 23005KT 2700 BR NCD 17/16 Q1012 YLO
22:25
I
18 °C 2,7 km - 260° 260° 3 kt METAR EHVK 172025Z AUTO 26003KT 230V290 2700 BR NCD 18/17 Q1012 YLO
22:12
I
18 °C 3,6 km - 260° 260° 2 kt METAR EHVK 172012Z AUTO 26002KT 3600 BR NCD 18/17 Q1012 YLO
22:05
I
18 °C 3,9 km - 270° 270° 3 kt METAR EHVK 172005Z AUTO 27003KT 210V280 3900 BR NCD 18/17 Q1012 GRN RMK CB INFO NOT AVBL
21:55
I
18 °C 3,4 km - 260° 260° 4 kt METAR EHVK 171955Z AUTO 26004KT 230V290 3400 BR NCD 18/17 Q1012 YLO RMK CB INFO NOT AVBL
21:26
I
17 °C 4,9 km - 230° 230° 3 kt METAR EHVK 171926Z AUTO 23003KT 4900 BR FEW059 17/17 Q1012 GRN
21:25
M
17 °C 5 km - 220° 220° 3 kt METAR EHVK 171925Z AUTO 22003KT 5000 BR SCT059 SCT064 17/17 Q1012 WHT
20:55
M
19 °C 6 km - 240° 240° 3 kt METAR EHVK 171855Z AUTO 24003KT 6000 BR NCD 19/17 Q1011 WHT
20:33
M
19 °C 7 km - 270° 270° 3 kt METAR EHVK 171833Z AUTO 27003KT 230V310 7000 BR FEW011 SCT015 19/18 Q1011 WHT
20:25
M
20 °C 7 km 1.000 ft 270° 270° 4 kt METAR EHVK 171825Z AUTO 27004KT 240V310 7000 BR FEW008 BKN010 OVC012 20/18 Q1011 GRN
20:13
M
20 °C 7 km 1.000 ft 280° 280° 4 kt METAR EHVK 171813Z AUTO 28004KT 240V310 7000 BR SCT009 BKN010 OVC059 20/18 Q1011 GRN
20:09
M
20 °C 7 km 5.700 ft 280° 280° 4 kt METAR EHVK 171809Z AUTO 28004KT 250V310 7000 BR FEW009 SCT010 OVC057 20/18 Q1011 GRN
19:55
M
20 °C 7 km 6.400 ft 300° 300° 3 kt METAR EHVK 171755Z AUTO 30003KT 7000 BR SCT053 BKN064 BKN084 20/18 Q1011 WHT
19:32
V
20 °C 8 km 5.200 ft 280° 280° 3 kt METAR EHVK 171732Z AUTO 28003KT 250V350 8000 BR OVC052 20/18 Q1011 BLU
19:25
M
20 °C 7 km 5.200 ft 290° 290° 3 kt METAR EHVK 171725Z AUTO 29003KT 270V350 7000 BR BKN052 OVC059 20/18 Q1011 WHT
18:55
M
20 °C 6 km 5.300 ft 280° 280° 4 kt METAR EHVK 171655Z AUTO 28004KT 230V320 6000 BR FEW008 BKN053 OVC059 20/18 Q1011 WHT
18:32
M
20 °C 6 km 5.300 ft 260° 260° 6 kt METAR EHVK 171632Z AUTO 26006KT 230V330 6000 BR FEW010 OVC053 20/18 Q1011 WHT
18:25
M
21 °C 6 km 1.000 ft 260° 260° 5 kt METAR EHVK 171625Z AUTO 26005KT 220V300 6000 BR FEW007 BKN010 BKN013 21/18 Q1011 GRN
18:07
M
21 °C 6 km 1.100 ft 250° 250° 4 kt METAR EHVK 171607Z AUTO 25004KT 190V290 6000 BR FEW008 BKN011 BKN049 21/18 Q1011 GRN
18:00
M
21 °C 6 km 4.900 ft 250° 250° 4 kt METAR EHVK 171600Z AUTO 25004KT 190V300 6000 BR FEW008 SCT011 BKN049 21/18 Q1011 GRN
17:56
M
21 °C 6 km 4.700 ft 240° 240° 4 kt METAR EHVK 171556Z AUTO 24004KT 190V300 6000 BR FEW007 BKN047 OVC053 21/19 Q1011 WHT
17:55
M
21 °C 6 km 4.800 ft 250° 250° 4 kt METAR EHVK 171555Z AUTO 25004KT 210V280 6000 BR FEW007 SCT011 OVC048 21/18 Q1011 GRN
17:43
M
20 °C 6 km 4.900 ft Var Var 2 kt METAR EHVK 171543Z AUTO VRB02KT 6000 BR FEW006 SCT043 OVC049 20/18 Q1011 WHT
17:33
I
20 °C 6 km 600 ft Var Var 1 kt METAR EHVK 171533Z AUTO VRB01KT 6000 BR BKN006 OVC042 20/18 Q1011 YLO
17:29
M
20 °C 6 km 4.300 ft Var Var 1 kt METAR EHVK 171529Z AUTO VRB01KT 6000 BR SCT006 OVC043 20/18 Q1011 YLO
17:25
M
20 °C 6 km 4.100 ft Var Var 1 kt METAR EHVK 171525Z AUTO VRB01KT 6000 BR BKN041 OVC045 20/18 Q1011 RETS WHT
17:09
M
20 °C 5 km 5.000 ft 360° 360° 3 kt METAR EHVK 171509Z AUTO 36003KT 310V040 5000 TS BR FEW006 SCT038 OVC050 20/18 Q1011 WHT
17:03
I
20 °C 5 km 500 ft Var Var 2 kt METAR EHVK 171503Z AUTO VRB02KT 5000 BR BKN005 BKN007 OVC053 20/18 Q1011 YLO
16:56
M
20 °C 5 km 5.200 ft Var Var 2 kt METAR EHVK 171456Z AUTO VRB02KT 5000 BR SCT005 OVC052 20/18 Q1011 YLO
16:55
M
20 °C 5 km 5.200 ft Var Var 2 kt METAR EHVK 171455Z AUTO VRB02KT 5000 BR FEW005 OVC052 20/18 Q1011 WHT
16:38
M
20 °C 5 km 5.200 ft 340° 340° 3 kt METAR EHVK 171438Z AUTO 34003KT 280V010 5000 BR FEW005 OVC052 20/18 Q1011 WHT
16:29
M
20 °C 5 km 5.300 ft 330° 330° 3 kt METAR EHVK 171429Z AUTO 33003KT 280V010 5000 BR SCT005 OVC053 20/18 Q1011 YLO
16:25
M
20 °C 5 km 5.100 ft 330° 330° 3 kt METAR EHVK 171425Z AUTO 33003KT 280V010 5000 BR OVC051 20/18 Q1011 WHT
16:16
M
20 °C 5 km 5.700 ft 310° 310° 4 kt METAR EHVK 171416Z AUTO 31004KT 280V020 5000 BR SCT051 OVC057 20/18 Q1011 WHT
16:00
I
20 °C 3,7 km 6.300 ft 300° 300° 3 kt METAR EHVK 171400Z AUTO 30003KT 270V340 3700 -DZRA SCT056 OVC063 20/19 Q1011 GRN TEMPO 2500 DZRA SHRA SCT008 BKN020 BKN050CB
15:59
I
20 °C 3,4 km 5.900 ft 310° 310° 4 kt METAR EHVK 171359Z AUTO 31004KT 270V340 3400 R24R/P3000N -RA FEW005 SCT054 BKN059 20/19 Q1011 YLO TEMPO 2500 DZRA SHRA SCT008 BKN020 BKN050CB
15:55
I
20 °C 3,8 km 5.300 ft 310° 310° 5 kt METAR EHVK 171355Z AUTO 31005KT 260V340 3800 -RA FEW005 BKN053 OVC058 20/18 Q1011 RERA REDZ GRN TEMPO 2500 DZRA SHRA SCT008 BKN020 BKN050CB
15:37
L
20 °C 3,7 km 400 ft Var Var 2 kt METAR EHVK 171337Z AUTO VRB02KT 3700 -RA BKN004 BKN006 BKN044 20/19 Q1011 YLO TEMPO 2500 DZRA SHRA SCT008 BKN020 BKN050CB
15:25
I
20 °C 3,3 km 6.400 ft 290° 290° 4 kt METAR EHVK 171325Z AUTO 29004KT 270V330 3300 R24R/P3000N -RA SCT006 FEW015CB BKN064 OVC070 20/19 Q1011 RERA REDZ YLO TEMPO 2500 DZRA SHRA SCT008 BKN020 BKN050CB
15:19
I
20 °C 3,4 km 7.000 ft 280° 280° 4 kt METAR EHVK 171319Z AUTO 28004KT 270V340 3400 R24R/P3000N -RA SCT006 FEW015CB SCT063 BKN070 20/19 Q1011 YLO TEMPO 2500 DZRA SHRA SCT008 BKN020 BKN050CB
15:11
M
20 °C 5 km 7.500 ft 290° 290° 4 kt METAR EHVK 171311Z AUTO 29004KT 260V340 5000 +DZRA FEW015CB BKN075 OVC080 20/19 Q1011 WHT TEMPO 18010G20KT 4500 -RA SHRA SCT012 SCT020 BKN050CB
15:07
M
20 °C 5 km 2.400 ft 290° 290° 5 kt METAR EHVK 171307Z AUTO 29005KT 270V340 5000 -RA FEW006 SCT008 FEW015CB BKN024 20/19 Q1011 GRN TEMPO 18010G20KT 4500 -RA SHRA SCT012 SCT020 BKN050CB
15:00
I
20 °C 5 km 700 ft 290° 290° 4 kt METAR EHVK 171300Z AUTO 29004KT 270V340 5000 BR SCT006 BKN007 BKN010 FEW015CB 20/19 Q1011 YLO TEMPO 18010G20KT 4500 -RA SHRA SCT012 SCT020 BKN050CB
14:58
M
21 °C 5 km 2.200 ft 300° 300° 3 kt METAR EHVK 171258Z AUTO 30003KT 270V340 5000 BR SCT007/// SCT010/// FEW015CB OVC022 21/19 Q1011 GRN TEMPO 18010G20KT 4500 -RA SHRA SCT012 SCT020 BKN050CB
14:55
M
21 °C 5 km 2.000 ft 300° 300° 3 kt METAR EHVK 171255Z AUTO 30003KT 280V340 5000 BR FEW015CB BKN020 OVC024 21/19 Q1011 REDZ WHT TEMPO 18010G20KT 4500 -RA SHRA SCT012 SCT020 BKN050CB
14:30
M
21 °C 6 km 1.700 ft 300° 300° 3 kt METAR EHVK 171230Z AUTO 30003KT 250V330 6000 DZ FEW011 SCT015CB OVC017 21/18 Q1011 WHT TEMPO 18010G20KT 4500 -RA SHRA SCT012 SCT020 BKN050CB
14:25
M
21 °C 6 km 1.600 ft 310° 310° 3 kt METAR EHVK 171225Z AUTO 31003KT 260V350 6000 -RADZ FEW009 SCT015CB BKN016 BKN024 21/18 Q1011 RERA REDZ WHT TEMPO 18010G20KT 4500 -RA SHRA SCT012 SCT020 BKN050CB
14:07
M
21 °C 6 km 1.300 ft 340° 340° 4 kt METAR EHVK 171207Z AUTO 34004KT 280V010 6000 +DZRA FEW008 SCT010 BKN013 FEW015CB 21/19 Q1011 GRN TEMPO 18010G20KT 4500 -RA SHRA SCT012 SCT020 BKN050CB
14:02
M
21 °C 7 km 1.600 ft 340° 340° 5 kt METAR EHVK 171202Z AUTO 34005KT 290V020 7000 -RADZ FEW009 SCT013 FEW015CB BKN016 21/18 Q1011 GRN TEMPO 18010G20KT 4500 -RA SHRA SCT012 SCT020 BKN050CB
13:59
M
21 °C 6 km 1.500 ft 350° 350° 5 kt METAR EHVK 171159Z AUTO 35005KT 300V020 6000 -RA FEW000 BKN015CB BKN026 21/18 Q1011 WHT TEMPO 18010G20KT 4500 -RA SHRA SCT012 SCT020 BKN050CB
13:52
M
21 °C 6 km 1.200 ft 350° 350° 6 kt METAR EHVK 171152Z AUTO 35006KT 300V030 6000 RA FEW000 BKN012 BKN030 21/18 Q1011 GRN TEMPO 18010G20KT 4500 -RA SHRA SCT012 SCT020 BKN050CB
13:39
V
21 °C 9 km 9.800 ft 350° 350° 4 kt METAR EHVK 171139Z AUTO 35004KT 330V030 9000 BR FEW012 OVC098 21/18 Q1010 BLU TEMPO 18010G20KT 4500 -RA SHRA SCT012 SCT020 BKN050CB
13:25
V
21 °C 8 km 9.700 ft 320° 320° 4 kt METAR EHVK 171125Z AUTO 32004KT 270V360 8000 DZRA FEW015CB BKN097 OVC100 21/18 Q1010 BLU TEMPO 18010G20KT 4500 -RA SHRA SCT012 SCT020 BKN050CB
13:19
V
21 °C 8 km 9.800 ft 320° 320° 4 kt METAR EHVK 171119Z AUTO 32004KT 270V010 8000 DZ FEW015CB BKN098 OVC100 21/18 Q1010 BLU TEMPO 18010G20KT 4500 -RA SHRA SCT012 SCT020 BKN050CB
13:15
V
21 °C 8 km 10.000 ft 320° 320° 4 kt METAR EHVK 171115Z AUTO 32004KT 270V010 8000 DZ SCT015CB OVC100 21/18 Q1010 WHT TEMPO 18010G20KT 4500 -RA SHRA SCT012 SCT020 BKN050CB
13:08
V
21 °C 8 km 9.900 ft 300° 300° 4 kt METAR EHVK 171108Z AUTO 30004KT 250V360 8000 DZ SCT015CB SCT093 OVC099 21/18 Q1010 WHT TEMPO 18010G20KT 4500 -RA SHRA SCT012 SCT020 BKN050CB
12:55
M
21 °C 9 km 2.200 ft 260° 260° 6 kt METAR EHVK 171055Z AUTO 26006KT 230V290 9000 -RA SCT015CB OVC022 21/18 Q1011 RERA REDZ WHT TEMPO 18010G20KT 4500 -RA SHRA SCT012 SCT020 BKN050CB
12:40
M
22 °C 10 km+ 2.300 ft 250° 250° 8 kt METAR EHVK 171040Z AUTO 25008KT 220V280 9999 -RA FEW018CB OVC023 22/17 Q1011 WHT TEMPO 18010G20KT 4500 -RA SHRA SCT012 SCT020 BKN050CB
12:28
M
22 °C 10 km+ 2.200 ft 230° 230° 9 kt METAR EHVK 171028Z AUTO 23009KT 100V250 9999 DZ BKN022CB 22/17 Q1011 WHT TEMPO 18010G20KT 4500 SHRA SCT012 BKN050CB
12:09
M
23 °C 10 km+ 2.400 ft Var Var 2 kt METAR EHVK 171009Z AUTO VRB02KT 9999 BKN024 OVC075 23/16 Q1010 WHT TEMPO 18010G20KT 4500 SHRA SCT012 BKN050CB
11:56
V
24 °C 10 km+ 10.000 ft Var Var 4 kt METAR EHVK 170956Z AUTO VRB04KT 9999 FEW075 OVC100 24/16 Q1010 BLU TEMPO 18010G20KT 4500 SHRA SCT012 BKN050CB
11:55
V
23 °C 10 km+ 10.000 ft Var Var 5 kt METAR EHVK 170955Z AUTO VRB05KT 9999 FEW080 OVC100 23/17 Q1010 BLU TEMPO 35010G20KT 4500 SHRA SCT012 BKN050CB
11:40
V
24 °C 10 km+ 11.000 ft Var Var 4 kt METAR EHVK 170940Z AUTO VRB04KT 9999 OVC110 24/17 Q1010 BLU TEMPO 35010G20KT 4500 SHRA SCT012 BKN050CB
11:25
V
24 °C 10 km+ 11.000 ft 330° 330° 4 kt METAR EHVK 170925Z AUTO 33004KT 250V060 9999 FEW099 OVC110 24/17 Q1010 BLU NOSIG
10:55
V
22 °C 10 km+ 11.000 ft 320° 320° 5 kt METAR EHVK 170855Z AUTO 32005KT 270V010 9999 FEW018CB OVC110 22/17 Q1009 REDZ BLU NOSIG
10:25
V
21 °C 10 km+ 10.000 ft 360° 360° 4 kt METAR EHVK 170825Z AUTO 36004KT 290V040 9999 -TSRA -DZ FEW019CB SCT090 OVC100 21/17 Q1010 BLU NOSIG
09:55
V
21 °C 10 km+ 13.000 ft 010° 010° 5 kt METAR EHVK 170755Z AUTO 01005KT 320V030 9999 SCT073 OVC130 21/17 Q1010 BLU NOSIG
09:25
V
21 °C 10 km+ 11.000 ft 320° 320° 4 kt METAR EHVK 170725Z AUTO 32004KT 280V350 9999 OVC110 21/17 Q1009 BLU NOSIG
08:55
V
21 °C 10 km+ 13.000 ft 350° 350° 4 kt METAR EHVK 170655Z AUTO 35004KT 310V050 9999 OVC130 21/17 Q1009 BLU NOSIG
08:25
V
20 °C 10 km+ 30.000 ft 020° 020° 4 kt METAR EHVK 170625Z AUTO 02004KT 9999 OVC300 20/17 Q1009 BLU NOSIG
07:58
V
20 °C 10 km+ 11.000 ft 350° 350° 4 kt METAR EHVK 170558Z AUTO 35004KT 320V020 9999 OVC110 20/17 Q1009 BLU NOSIG
07:55
V
20 °C 10 km+ 12.000 ft 340° 340° 4 kt METAR EHVK 170555Z AUTO 34004KT 320V020 9999 OVC120 20/17 Q1009 BLU
07:25
V
20 °C 9 km 7.500 ft 310° 310° 5 kt METAR EHVK 170525Z AUTO 31005KT 250V350 9000 BR BKN075 BKN081 OVC088 20/17 Q1009 BLU
06:55
V
19 °C 10 km+ 9.100 ft 310° 310° 3 kt METAR EHVK 170455Z AUTO 31003KT 270V340 9999 SCT083 BKN091 OVC110 19/17 Q1009 BLU
06:25
V
19 °C 9 km 14.000 ft 010° 010° 1 kt METAR EHVK 170425Z AUTO 01001KT 9000 HZ FEW073 OVC140 19/17 Q1008 BLU
05:55
V
20 °C 10 km+ 7.400 ft 360° 360° 4 kt METAR EHVK 170355Z AUTO 36004KT 320V030 9999 BKN074 OVC200 20/17 Q1008 BLU
05:25
V
20 °C 10 km+ 24.000 ft 040° 040° 4 kt METAR EHVK 170325Z AUTO 04004KT 9999 OVC240 20/16 Q1008 BLU
04:55
V
20 °C 10 km+ 27.000 ft 040° 040° 4 kt METAR EHVK 170255Z AUTO 04004KT 9999 BKN270 OVC320 20/17 Q1008 BLU
04:25
V
20 °C 9 km 14.000 ft 050° 050° 3 kt METAR EHVK 170225Z AUTO 05003KT 9000 HZ OVC140 20/17 Q1009 BLU
03:55
V
20 °C 8 km 15.000 ft 060° 060° 4 kt METAR EHVK 170155Z AUTO 06004KT 8000 HZ OVC150 20/17 Q1009 BLU
03:25
V
20 °C 9 km 15.000 ft 080° 080° 4 kt METAR EHVK 170125Z AUTO 08004KT 9000 HZ OVC150 20/17 Q1009 BLU
02:55
V
20 °C 9 km 12.000 ft 060° 060° 4 kt METAR EHVK 170055Z AUTO 06004KT 9000 HZ OVC120 20/17 Q1009 BLU
02:25
V
20 °C 9 km 10.000 ft 060° 060° 4 kt METAR EHVK 170025Z AUTO 06004KT 9000 HZ OVC100 20/17 Q1009 BLU
01:55
V
20 °C 10 km+ 11.000 ft 060° 060° 4 kt METAR EHVK 162355Z AUTO 06004KT 9999 OVC110 20/17 Q1010 BLU
01:25
V
20 °C 10 km+ 11.000 ft 050° 050° 4 kt METAR EHVK 162325Z AUTO 05004KT 9999 OVC110 20/17 Q1010 BLU
00:55
V
21 °C 10 km+ 25.000 ft 040° 040° 3 kt METAR EHVK 162255Z AUTO 04003KT 9999 OVC250 21/17 Q1010 BLU
00:25
V
21 °C 10 km+ 28.000 ft 020° 020° 3 kt METAR EHVK 162225Z AUTO 02003KT 360V060 9999 OVC280 21/17 Q1010 BLU

16 augustus 2022

Tijd Code Weer Temp. Zicht Plafond Wind METAR/SPECI
23:55
V
21 °C 10 km+ 7.600 ft 020° 020° 3 kt METAR EHVK 162155Z AUTO 02003KT 9999 BKN076 BKN084 OVC210 21/16 Q1010 BLU
23:25
V
22 °C 10 km+ 15.000 ft 360° 360° 4 kt METAR EHVK 162125Z AUTO 36004KT 9999 OVC150 22/16 Q1010 BLU
22:55
V
22 °C 10 km+ 15.000 ft 360° 360° 4 kt METAR EHVK 162055Z AUTO 36004KT 9999 TS OVC150 22/15 Q1010 BLU
22:25
V
22 °C 10 km+ 30.000 ft 010° 010° 1 kt METAR EHVK 162025Z AUTO 01001KT 9999 OVC300 22/15 Q1010 BLU
21:55
V
22 °C 10 km+ 17.000 ft 350° 350° 2 kt METAR EHVK 161955Z AUTO 35002KT 9999 BKN170 OVC300 22/16 Q1009 BLU
21:25
V
24 °C 10 km+ 17.000 ft 010° 010° 3 kt METAR EHVK 161925Z AUTO 01003KT 320V030 9999 OVC170 24/15 Q1009 BLU
20:55
V
24 °C 10 km+ 17.000 ft 360° 360° 3 kt METAR EHVK 161855Z AUTO 36003KT 9999 OVC170 24/15 Q1009 BLU
20:25
V
25 °C 10 km+ 22.000 ft 360° 360° 3 kt METAR EHVK 161825Z AUTO 36003KT 9999 BKN220 OVC290 25/15 Q1009 BLU
19:55
V
26 °C 10 km+ 18.000 ft 350° 350° 5 kt METAR EHVK 161755Z AUTO 35005KT 310V010 9999 OVC180 26/14 Q1008 BLU
19:25
V
27 °C 10 km+ 19.000 ft 360° 360° 5 kt METAR EHVK 161725Z AUTO 36005KT 9999 OVC190 27/12 Q1008 BLU
18:55
V
28 °C 10 km+ 24.000 ft 350° 350° 7 kt METAR EHVK 161655Z AUTO 35007KT 310V020 9999 OVC240 28/11 Q1008 BLU
18:25
V
28 °C 10 km+ 14.000 ft 290° 290° 4 kt METAR EHVK 161625Z AUTO 29004KT 220V360 9999 OVC140 28/13 Q1008 BLU
17:55
V
29 °C 10 km+ 16.000 ft 250° 250° 6 kt METAR EHVK 161555Z AUTO 25006KT 170V250 9999 OVC160 29/11 Q1008 BLU
17:25
V
30 °C 10 km+ 16.000 ft 260° 260° 4 kt METAR EHVK 161525Z AUTO 26004KT 240V340 9999 OVC160 30/13 Q1008 BLU
16:55
V
30 °C 10 km+ 15.000 ft Var Var 5 kt METAR EHVK 161455Z AUTO VRB05KT 9999 OVC150 30/11 Q1008 BLU
Oudere gegevens

Met cookies volgen wij en derde partijen jouw internetgedrag binnen onze site. Als je verdergaat gaan we ervan uit dat je dit goedvindt. Meer info